Terminal Aerodrome Forecast
Issued by NWS Louisville, KY

Home | Current Version | Previous Version | Text Only | Print | Product List | Glossary On
Versions: 1 2 3 4 5 6 7 8 9 10 11 12
000
FTUS43 KLMK 211700
TAFLEX
TAF
KLEX 211733Z 2118/2218 32008KT P6SM SCT015 BKN025
     FM220000 VRB03KT P6SM SCT035
     FM221000 VRB03KT 5SM BR SKC
     FM221400 27008KT P6SM SCT250=

USA.gov is the U.S. government's official web portal to all federal, state and local government web resources and services.